Time;durP1;ratioP1;P1;durP2;ratioP2;P2;SDS_P1;SDS_P2;PMS_P1;PMS_P2;Temp;Humidity;BMP_temperature;BMP_pressure;BME280_temperature;BME280_humidity;BME280_pressure;Samples;Min_cycle;Max_cycle;Signal;HPM_P1;HPM_P2
2022/09/08 00:02:15;;;;;;;9.48;5.10;;;;;;;15.10;100.00;98072.78;4890671;29;20035;-86
2022/09/08 00:04:42;;;;;;;11.30;5.43;;;;;;;15.10;100.00;98078.91;4854775;29;20036;-85
2022/09/08 00:07:08;;;;;;;14.02;5.97;;;;;;;15.05;100.00;98080.69;4885943;29;20039;-86
2022/09/08 00:09:35;;;;;;;8.43;5.05;;;;;;;14.97;100.00;98069.50;4894412;29;20398;-84
2022/09/08 00:12:02;;;;;;;11.50;5.93;;;;;;;14.96;100.00;98078.47;4908714;29;20036;-84
2022/09/08 00:14:29;;;;;;;12.68;6.00;;;;;;;14.87;100.00;98066.72;4875394;29;20131;-85
2022/09/08 00:16:55;;;;;;;14.65;6.72;;;;;;;14.85;100.00;98068.81;4887491;29;20025;-85
2022/09/08 00:19:20;;;;;;;13.95;6.70;;;;;;;14.83;100.00;98065.63;4875882;29;20033;-85
2022/09/08 00:21:46;;;;;;;13.52;7.38;;;;;;;14.80;100.00;98069.56;4871678;29;20136;-85
2022/09/08 00:24:12;;;;;;;12.70;6.65;;;;;;;14.69;100.00;98050.13;4873905;29;20058;-86
2022/09/08 00:26:37;;;;;;;12.70;8.15;;;;;;;14.83;100.00;98068.28;4885480;29;20085;-85
2022/09/08 00:29:03;;;;;;;9.45;6.70;;;;;;;14.85;100.00;98072.28;4890561;29;20033;-86
2022/09/08 00:31:29;;;;;;;14.13;6.75;;;;;;;14.88;100.00;98070.19;4891093;29;20041;-86
2022/09/08 00:33:54;;;;;;;10.90;6.22;;;;;;;14.89;100.00;98067.28;4887727;29;20068;-84
2022/09/08 00:36:20;;;;;;;16.35;7.30;;;;;;;14.89;100.00;98067.28;4870795;29;20080;-84
2022/09/08 00:38:53;;;;;;;10.02;6.07;;;;;;;14.94;100.00;98070.00;4869294;29;20029;-84
2022/09/08 00:41:20;;;;;;;9.53;6.20;;;;;;;14.87;100.00;98064.09;4883826;29;20037;-85
2022/09/08 00:43:48;;;;;;;11.00;6.28;;;;;;;14.90;100.00;98062.81;4872145;29;20037;-84
2022/09/08 00:46:27;;;;;;;11.93;7.07;;;;;;;14.85;100.00;98055.63;4890504;29;20045;-85
2022/09/08 00:49:00;;;;;;;10.07;6.13;;;;;;;14.84;100.00;98052.19;4872480;29;20488;-84
2022/09/08 00:51:26;;;;;;;16.27;6.78;;;;;;;14.87;100.00;98069.38;4886358;29;20097;-85
2022/09/08 00:54:11;;;;;;;10.93;6.45;;;;;;;14.83;100.00;98058.50;4887936;29;20089;-84
2022/09/08 00:56:39;;;;;;;12.90;6.35;;;;;;;14.88;100.00;98059.63;4868090;29;20475;-84
2022/09/08 00:59:07;;;;;;;12.10;6.75;;;;;;;14.92;100.00;98061.50;4903917;29;20033;-85
2022/09/08 01:01:35;;;;;;;11.07;6.82;;;;;;;14.89;100.00;98054.06;4886995;29;20029;-84
2022/09/08 01:04:03;;;;;;;16.77;8.40;;;;;;;14.85;100.00;98048.50;4855128;29;20032;-84
2022/09/08 01:12:47;;;;;;;18.55;9.73;;;;;;;14.93;100.00;98047.25;4868884;29;20380;-85
2022/09/08 01:15:18;;;;;;;;;;;;;;;15.09;100.00;98060.63;4885466;29;20495;-85
2022/09/08 01:17:47;;;;;;;18.98;9.52;;;;;;;14.96;100.00;98046.78;4868266;29;19997;-85
2022/09/08 01:20:15;;;;;;;20.35;10.35;;;;;;;14.99;100.00;98051.56;4894921;29;20127;-86
2022/09/08 01:22:56;;;;;;;25.27;10.65;;;;;;;15.05;100.00;98057.69;4889188;29;20049;-85
2022/09/08 01:25:47;;;;;;;14.93;9.63;;;;;;;15.05;100.00;98048.97;4867998;29;20434;-86
2022/09/08 01:28:21;;;;;;;18.30;9.77;;;;;;;14.98;100.00;98041.22;4890987;29;20048;-86
2022/09/08 01:30:47;;;;;;;18.73;10.27;;;;;;;14.99;100.00;98037.53;4889656;29;20487;-85
2022/09/08 01:33:15;;;;;;;15.32;9.50;;;;;;;15.04;100.00;98039.44;4886695;29;20387;-86
2022/09/08 01:35:43;;;;;;;14.13;8.25;;;;;;;15.03;100.00;98035.97;4878240;29;20032;-86
2022/09/08 01:38:10;;;;;;;13.00;8.82;;;;;;;15.02;100.00;98039.69;4870754;29;20436;-85
2022/09/08 01:40:38;;;;;;;22.88;10.02;;;;;;;15.10;100.00;98047.19;4883403;29;20085;-86
2022/09/08 01:43:08;;;;;;;15.70;9.07;;;;;;;15.06;100.00;98051.38;4901657;29;20459;-84
2022/09/08 01:45:35;;;;;;;17.35;8.73;;;;;;;15.03;100.00;98051.06;4871541;29;20104;-85
2022/09/08 01:48:01;;;;;;;16.42;10.15;;;;;;;14.96;100.00;98038.84;4888411;29;20063;-85
2022/09/08 01:50:26;;;;;;;18.30;9.98;;;;;;;14.92;100.00;98029.00;4891495;29;20434;-85
2022/09/08 01:52:52;;;;;;;19.45;10.30;;;;;;;15.01;100.00;98045.22;4886241;29;20039;-85
2022/09/08 01:55:18;;;;;;;21.17;11.65;;;;;;;15.06;100.00;98045.28;4871159;29;20037;-86
2022/09/08 01:57:43;;;;;;;17.95;10.57;;;;;;;15.05;100.00;98038.38;4890856;29;20044;-85
2022/09/08 02:00:10;;;;;;;16.58;9.98;;;;;;;15.00;100.00;98023.28;4868646;29;20045;-86
2022/09/08 02:02:35;;;;;;;19.33;10.38;;;;;;;14.98;100.00;98015.63;4885582;29;20471;-86
2022/09/08 02:05:01;;;;;;;23.58;14.30;;;;;;;15.06;100.00;98024.13;4882687;29;20040;-85
2022/09/08 02:07:27;;;;;;;21.60;12.88;;;;;;;15.13;100.00;98024.72;4901462;29;20036;-85
2022/09/08 02:09:53;;;;;;;20.00;11.43;;;;;;;15.12;100.00;98029.22;4886620;29;20041;-85
2022/09/08 02:12:19;;;;;;;18.52;11.18;;;;;;;15.07;100.00;98015.97;4887434;29;20512;-86
2022/09/08 02:14:45;;;;;;;20.77;12.38;;;;;;;15.08;100.00;98014.91;4890837;29;20040;-85
2022/09/08 02:17:11;;;;;;;20.88;11.65;;;;;;;15.12;100.00;98012.56;4902863;29;20471;-86
2022/09/08 02:19:36;;;;;;;18.35;11.18;;;;;;;15.16;100.00;98013.69;4888472;29;20124;-84
2022/09/08 02:22:02;;;;;;;18.15;11.55;;;;;;;15.10;100.00;98004.91;4877165;29;20049;-85
2022/09/08 02:24:28;;;;;;;20.77;11.48;;;;;;;15.16;100.00;98008.38;4888834;29;20032;-85
2022/09/08 02:26:54;;;;;;;20.05;11.55;;;;;;;15.12;100.00;98001.97;4909079;29;20044;-85
2022/09/08 02:29:20;;;;;;;19.70;11.52;;;;;;;15.13;100.00;98003.56;4902037;29;20080;-85
2022/09/08 02:31:45;;;;;;;22.80;12.02;;;;;;;15.12;100.00;98002.78;4886491;29;20039;-85
2022/09/08 02:34:11;;;;;;;24.52;13.10;;;;;;;15.11;100.00;98003.03;4908542;29;20036;-84
2022/09/08 02:36:36;;;;;;;23.50;12.98;;;;;;;15.14;100.00;98010.47;4903500;29;20051;-85
2022/09/08 02:39:03;;;;;;;21.92;11.82;;;;;;;15.08;100.00;97999.06;4903143;29;20044;-84
2022/09/08 02:41:29;;;;;;;19.38;12.38;;;;;;;15.10;100.00;98001.44;4906382;29;20038;-85
2022/09/08 02:43:54;;;;;;;19.80;12.20;;;;;;;15.09;100.00;97992.72;4907877;29;20044;-85
2022/09/08 02:46:20;;;;;;;20.70;11.55;;;;;;;15.14;100.00;98003.34;4905301;29;20043;-85
2022/09/08 02:48:47;;;;;;;20.25;11.18;;;;;;;15.19;100.00;97999.13;4904413;29;20071;-84
2022/09/08 02:51:14;;;;;;;22.42;12.55;;;;;;;15.17;100.00;97982.75;4918775;29;20040;-84
2022/09/08 02:53:41;;;;;;;20.02;10.98;;;;;;;15.17;100.00;97986.19;4903571;29;20036;-85
2022/09/08 02:56:08;;;;;;;34.60;14.45;;;;;;;15.20;100.00;97993.63;4888583;29;20032;-85
2022/09/08 02:58:34;;;;;;;25.40;13.38;;;;;;;15.33;100.00;98002.16;4917455;29;20033;-85
2022/09/08 03:01:01;;;;;;;27.20;12.57;;;;;;;15.35;100.00;97989.53;4903691;29;20051;-84
2022/09/08 03:03:27;;;;;;;16.67;10.25;;;;;;;15.36;100.00;97996.41;4906168;29;20036;-85
2022/09/08 03:05:53;;;;;;;18.67;11.23;;;;;;;15.31;100.00;98004.28;4885824;29;20064;-86
2022/09/08 03:08:21;;;;;;;18.10;10.60;;;;;;;15.32;100.00;98005.84;4904026;29;20036;-86
2022/09/08 03:10:50;;;;;;;18.88;10.93;;;;;;;15.25;100.00;97992.88;4904788;29;20115;-86
2022/09/08 03:13:17;;;;;;;19.73;10.65;;;;;;;15.31;100.00;98004.28;4905257;29;20622;-85
2022/09/08 03:15:43;;;;;;;20.35;10.57;;;;;;;15.32;100.00;98005.84;4887412;29;20037;-85
2022/09/08 03:18:08;;;;;;;20.33;11.68;;;;;;;15.28;100.00;97998.44;4903578;29;20048;-85
2022/09/08 03:20:36;;;;;;;18.00;11.88;;;;;;;15.08;100.00;97964.69;4890957;29;20036;-86
2022/09/08 03:23:03;;;;;;;22.00;12.70;;;;;;;15.09;100.00;97986.63;4918458;29;20072;-85
2022/09/08 03:25:29;;;;;;;22.80;12.30;;;;;;;15.17;100.00;97995.94;4902562;29;20036;-85
2022/09/08 03:27:56;;;;;;;19.92;12.48;;;;;;;15.17;100.00;97998.59;4902680;29;20487;-86
2022/09/08 03:30:21;;;;;;;20.10;13.07;;;;;;;15.08;100.00;97985.84;4904143;29;20497;-85
2022/09/08 03:32:48;;;;;;;22.67;13.43;;;;;;;15.18;100.00;97997.53;4906876;29;20040;-85
2022/09/08 03:35:16;;;;;;;22.92;13.73;;;;;;;15.22;100.00;98012.66;4904419;29;20228;-85
2022/09/08 03:37:42;;;;;;;24.85;14.00;;;;;;;15.20;100.00;98006.03;4902602;29;20028;-85
2022/09/08 03:40:17;;;;;;;19.67;13.32;;;;;;;15.23;100.00;98003.69;4925816;29;20028;-84
2022/09/08 03:42:44;;;;;;;28.70;15.13;;;;;;;15.30;100.00;97997.38;4904528;29;20028;-85
2022/09/08 03:45:16;;;;;;;22.60;14.40;;;;;;;15.32;100.00;97995.28;4904448;29;20558;-85
2022/09/08 03:47:42;;;;;;;24.83;15.13;;;;;;;15.34;100.00;97996.63;4905471;29;20071;-85
2022/09/08 03:50:10;;;;;;;23.52;13.63;;;;;;;15.32;100.00;97982.88;4907707;29;20032;-84
2022/09/08 03:52:35;;;;;;;22.40;13.85;;;;;;;15.36;100.00;97997.19;4904410;29;20036;-83
2022/09/08 03:55:01;;;;;;;32.38;14.73;;;;;;;15.42;100.00;98008.59;4919127;29;20125;-84
2022/09/08 03:57:28;;;;;;;29.90;14.43;;;;;;;15.47;100.00;98008.66;4917671;29;20079;-85
2022/09/08 03:59:57;;;;;;;23.42;14.15;;;;;;;15.51;100.00;98016.88;4901182;29;20039;-85
2022/09/08 04:02:24;;;;;;;26.63;14.07;;;;;;;15.48;100.00;98007.59;4903656;29;20032;-86
2022/09/08 04:04:52;;;;;;;30.48;15.27;;;;;;;15.51;100.00;98003.66;4902173;29;20468;-84
2022/09/08 04:07:19;;;;;;;26.35;13.98;;;;;;;15.51;100.00;98001.00;4898428;29;20119;-85
2022/09/08 04:09:45;;;;;;;23.70;13.55;;;;;;;15.44;100.00;97988.00;4892590;29;20044;-84
2022/09/08 04:12:12;;;;;;;26.75;15.52;;;;;;;15.47;100.00;97998.06;4887846;29;20040;-84
2022/09/08 04:14:39;;;;;;;34.53;15.63;;;;;;;15.41;100.00;97994.56;4904666;29;20044;-84
2022/09/08 04:17:05;;;;;;;31.20;14.40;;;;;;;15.46;100.00;97996.47;4901803;29;20032;-84
2022/09/08 04:19:31;;;;;;;30.33;14.48;;;;;;;15.47;100.00;98002.56;4885302;29;20032;-84
2022/09/08 04:21:56;;;;;;;21.55;13.18;;;;;;;15.47;100.00;97999.94;4904492;29;20084;-84
2022/09/08 04:24:22;;;;;;;24.40;12.40;;;;;;;15.51;100.00;98001.00;4902616;29;20039;-85
2022/09/08 04:26:48;;;;;;;22.85;12.00;;;;;;;15.50;100.00;97989.63;4908089;29;20039;-84
2022/09/08 04:29:14;;;;;;;19.55;12.10;;;;;;;15.57;100.00;97995.50;4892551;29;20122;-84
2022/09/08 04:31:40;;;;;;;21.98;11.82;;;;;;;15.56;100.00;98001.84;4910800;29;20135;-84
2022/09/08 04:34:06;;;;;;;24.00;12.38;;;;;;;15.46;100.00;97987.75;4908789;29;20517;-86
2022/09/08 04:36:31;;;;;;;20.77;11.23;;;;;;;15.51;100.00;97996.50;4910698;29;20043;-84
2022/09/08 04:38:59;;;;;;;17.65;10.23;;;;;;;15.51;100.00;97996.50;4891524;29;20060;-85
2022/09/08 04:41:26;;;;;;;18.52;10.77;;;;;;;15.49;100.00;97988.03;4907214;29;20033;-84
2022/09/08 04:43:54;;;;;;;14.43;10.02;;;;;;;15.43;100.00;97989.06;4889762;29;20036;-84
2022/09/08 04:46:20;;;;;;;21.98;10.88;;;;;;;15.42;100.00;97982.16;4904056;29;20048;-86
2022/09/08 04:48:47;;;;;;;23.13;10.50;;;;;;;15.47;100.00;97989.34;4902019;29;20032;-85
2022/09/08 04:51:15;;;;;;;23.27;12.65;;;;;;;15.49;100.00;97987.25;4903316;29;20036;-85
2022/09/08 04:53:41;;;;;;;28.20;13.40;;;;;;;15.42;100.00;97982.16;4891174;29;20028;-86
2022/09/08 04:56:09;;;;;;;23.17;12.57;;;;;;;15.44;100.00;97974.00;4907891;29;20033;-84
2022/09/08 04:58:37;;;;;;;18.73;12.00;;;;;;;15.52;100.00;97968.22;4911098;29;20477;-85
2022/09/08 05:01:03;;;;;;;31.95;14.55;;;;;;;15.43;100.00;97967.91;4910249;29;20063;-85
2022/09/08 05:03:29;;;;;;;24.80;13.18;;;;;;;15.49;100.00;97974.81;4922899;29;20046;-86
2022/09/08 05:05:55;;;;;;;40.30;15.57;;;;;;;15.50;100.00;97981.69;4908068;29;20040;-84
2022/09/08 05:08:21;;;;;;;21.05;15.27;;;;;;;15.43;100.00;97965.25;4893377;29;20064;-84
2022/09/08 05:10:51;;;;;;;21.60;14.30;;;;;;;15.52;100.00;97984.09;4891787;29;20083;-85
2022/09/08 05:13:17;;;;;;;21.73;14.27;;;;;;;15.52;100.00;97981.44;4911452;29;20043;-86
2022/09/08 05:15:44;;;;;;;24.88;16.27;;;;;;;15.56;100.00;97975.41;4889408;29;20029;-84
2022/09/08 05:18:10;;;;;;;24.70;17.00;;;;;;;15.67;100.00;97983.41;4890095;29;20484;-86
2022/09/08 05:20:35;;;;;;;34.47;19.92;;;;;;;15.64;100.00;97968.03;4889686;29;20071;-86
2022/09/08 05:23:01;;;;;;;36.15;22.05;;;;;;;15.64;100.00;97970.69;4894247;29;20088;-86
2022/09/08 05:25:27;;;;;;;36.58;21.45;;;;;;;15.64;100.00;97968.84;4888949;29;20391;-85
2022/09/08 05:27:53;;;;;;;34.97;21.30;;;;;;;15.60;100.00;97965.09;4902865;29;20529;-85
2022/09/08 05:30:18;;;;;;;34.03;21.13;;;;;;;15.59;100.00;97968.00;4887848;29;20141;-85
2022/09/08 05:32:44;;;;;;;37.88;22.50;;;;;;;15.52;100.00;97953.13;4920469;29;20133;-86
2022/09/08 05:35:10;;;;;;;51.25;24.15;;;;;;;15.45;100.00;97949.94;4908454;29;20100;-84
2022/09/08 05:37:35;;;;;;;41.88;22.40;;;;;;;15.41;100.00;97935.63;4891023;29;20032;-85
2022/09/08 05:40:01;;;;;;;34.83;19.77;;;;;;;15.54;100.00;97959.00;4907953;29;20052;-86
2022/09/08 05:42:26;;;;;;;43.30;21.80;;;;;;;15.51;100.00;97948.91;4903054;29;20033;-85
2022/09/08 05:44:53;;;;;;;57.28;24.17;;;;;;;15.44;100.00;97948.34;4908250;29;20498;-85
2022/09/08 05:47:19;;;;;;;40.97;20.33;;;;;;;15.49;100.00;97966.09;4888937;29;20051;-85
2022/09/08 05:49:45;;;;;;;33.15;18.23;;;;;;;15.62;100.00;97967.50;4906073;29;20115;-85
2022/09/08 05:52:11;;;;;;;37.30;19.65;;;;;;;15.60;100.00;97959.03;4902959;29;20039;-85
2022/09/08 05:54:37;;;;;;;44.13;20.98;;;;;;;15.69;100.00;97974.16;4905626;29;20028;-85
2022/09/08 05:57:03;;;;;;;39.22;19.88;;;;;;;15.66;100.00;97952.72;4905460;29;20051;-85
2022/09/08 05:59:29;;;;;;;41.60;20.23;;;;;;;15.73;100.00;97966.53;4910376;29;20036;-85
2022/09/08 06:01:55;;;;;;;39.70;20.15;;;;;;;15.84;100.00;97976.13;4892769;29;20104;-85
2022/09/08 06:04:20;;;;;;;39.25;21.20;;;;;;;15.83;100.00;97974.53;4908117;29;20032;-85
2022/09/08 06:06:46;;;;;;;39.33;20.70;;;;;;;15.92;100.00;97977.53;4877816;29;20040;-84
2022/09/08 06:09:12;;;;;;;39.95;21.77;;;;;;;15.90;100.00;97969.03;4906877;29;20036;-85
2022/09/08 06:11:39;;;;;;;41.58;21.58;;;;;;;15.89;100.00;97971.94;4907127;29;20479;-85
2022/09/08 06:14:05;;;;;;;47.22;23.65;;;;;;;15.78;100.00;97966.56;4918305;29;20115;-84
2022/09/08 06:16:32;;;;;;;43.97;22.70;;;;;;;15.95;100.00;97970.94;4904342;29;20036;-85
2022/09/08 06:19:00;;;;;;;44.83;22.40;;;;;;;15.97;100.00;97971.47;4919634;29;20032;-85
2022/09/08 06:21:28;;;;;;;39.83;23.08;;;;;;;15.97;100.00;97974.13;4900921;29;20132;-85
2022/09/08 06:24:03;;;;;;;37.90;23.65;;;;;;;16.03;100.00;97973.06;4888407;29;20172;-83
2022/09/08 06:26:29;;;;;;;38.28;22.55;;;;;;;16.05;100.00;97970.97;4888268;29;20119;-82
2022/09/08 06:28:58;;;;;;;38.92;24.02;;;;;;;15.96;100.00;97935.47;4876953;29;20180;-82
2022/09/08 06:31:32;;;;;;;37.05;22.23;;;;;;;16.12;100.00;97960.97;4901599;29;20070;-82
2022/09/08 06:34:02;;;;;;;36.20;21.83;;;;;;;16.10;100.00;97952.47;4908418;29;20040;-82
2022/09/08 06:36:41;;;;;;;45.17;23.42;;;;;;;16.17;100.00;97962.81;4905266;29;20130;-83
2022/09/08 06:39:14;;;;;;;44.95;22.33;;;;;;;16.12;100.00;97963.63;4911027;29;20493;-84
2022/09/08 06:41:51;;;;;;;47.13;23.63;;;;;;;16.11;100.00;97964.66;4886149;29;20036;-82
2022/09/08 06:44:22;;;;;;;48.35;23.63;;;;;;;16.17;100.00;97972.63;4890648;29;20136;-83
2022/09/08 06:46:48;;;;;;;43.85;23.15;;;;;;;16.21;100.00;97977.16;4906968;29;20036;-83
2022/09/08 06:49:14;;;;;;;50.65;24.83;;;;;;;16.28;100.00;97979.53;4888469;29;20139;-83
2022/09/08 06:51:58;;;;;;;48.90;25.65;;;;;;;16.38;100.00;97973.50;4906994;29;20550;-87
2022/09/08 06:54:51;;;;;;;55.72;26.88;;;;;;;16.42;100.00;97974.59;4888212;29;20127;-86
2022/09/08 06:57:36;;;;;;;44.55;23.83;;;;;;;16.47;100.00;97979.09;4909569;29;20035;-86
2022/09/08 07:00:24;;;;;;;37.95;23.90;;;;;;;16.44;100.00;97982.28;4906908;29;20036;-84
2022/09/08 07:02:52;;;;;;;46.45;25.10;;;;;;;16.44;100.00;97976.97;4903107;29;20113;-85
2022/09/08 07:05:36;;;;;;;41.15;24.95;;;;;;;16.48;100.00;97986.78;4908195;29;20520;-84
2022/09/08 07:08:32;;;;;;;38.20;24.35;;;;;;;16.45;100.00;97968.78;4907874;29;20371;-84
2022/09/08 07:11:20;;;;;;;39.67;23.13;;;;;;;16.60;100.00;97981.28;4908692;29;20068;-85
2022/09/08 07:14:03;;;;;;;41.83;23.08;;;;;;;16.67;100.00;97979.16;4884360;29;20508;-86
2022/09/08 07:16:49;;;;;;;;;;;;;;;16.68;100.00;97982.63;4906466;29;20177;-88
2022/09/08 07:19:46;;;;;;;36.22;21.33;;;;;;;16.61;100.00;97961.66;4896656;29;19919;-87
2022/09/08 07:22:37;;;;;;;41.40;24.33;;;;;;;16.77;100.00;97974.97;4879753;29;20064;-85
2022/09/08 07:25:15;;;;;;;41.78;21.85;;;;;;;16.94;100.00;97975.53;4867932;29;20060;-84
2022/09/08 07:27:43;;;;;;;35.28;20.23;;;;;;;17.01;100.00;97974.50;4854664;29;20504;-84
2022/09/08 07:30:15;;;;;;;39.40;21.00;;;;;;;17.18;100.00;97972.41;4892025;29;20036;-85
2022/09/08 07:32:45;;;;;;;37.03;20.13;;;;;;;17.21;100.00;97968.44;4876577;29;20500;-84
2022/09/08 07:35:29;;;;;;;35.70;18.02;;;;;;;17.31;100.00;97957.81;4866584;29;20509;-83
2022/09/08 07:38:03;;;;;;;26.50;14.65;;;;;;;17.28;100.00;97948.53;4884783;29;20028;-84
2022/09/08 07:40:38;;;;;;;;;;;;;;;17.45;100.00;97963.38;4883505;29;20111;-82
2022/09/08 07:43:12;;;;;;;23.13;15.32;;;;;;;17.33;100.00;97947.75;4886020;29;19923;-84
2022/09/08 07:45:46;;;;;;;22.88;13.85;;;;;;;17.41;100.00;97946.41;4884102;29;20037;-84
2022/09/08 07:48:15;;;;;;;24.08;14.02;;;;;;;17.63;100.00;97947.97;4878743;29;20088;-84
2022/09/08 07:50:55;;;;;;;22.95;12.57;;;;;;;17.68;100.00;97943.47;4885398;29;20032;-84
2022/09/08 07:53:59;;;;;;;29.98;12.15;;;;;;;17.79;100.00;97944.25;4893769;29;20028;-83
2022/09/08 07:56:34;;;;;;;18.73;10.10;;;;;;;17.80;100.00;97947.72;4864717;29;20207;-84
2022/09/08 07:59:46;;;;;;;16.33;9.45;;;;;;;17.78;100.00;97934.69;4885414;29;20391;-84
2022/09/08 08:02:33;;;;;;;13.55;9.40;;;;;;;17.79;100.00;97936.28;4861755;29;20477;-84
2022/09/08 08:05:25;;;;;;;13.43;8.10;;;;;;;17.96;100.00;97941.28;4872556;29;20514;-84
2022/09/08 08:08:28;;;;;;;13.30;8.23;;;;;;;18.11;100.00;97940.47;4887259;29;20053;-84
2022/09/08 08:10:58;;;;;;;16.00;8.20;;;;;;;18.23;100.00;97934.84;4866478;29;20037;-83
2022/09/08 08:13:43;;;;;;;14.75;7.13;;;;;;;18.21;100.00;97930.88;4887815;29;20041;-83
2022/09/08 08:16:13;;;;;;;11.50;6.15;;;;;;;18.15;100.00;97932.75;4886015;29;20538;-84
2022/09/08 08:19:00;;;;;;;13.45;6.82;;;;;;;18.22;100.00;97927.16;4872173;29;20047;-82
2022/09/08 08:21:36;;;;;;;13.93;7.20;;;;;;;18.32;100.00;97919.16;4890928;29;20514;-82
2022/09/08 08:24:52;;;;;;;15.05;7.60;;;;;;;18.43;100.00;97919.88;4887750;29;20571;-82
2022/09/08 08:27:47;;;;;;;12.75;7.70;;;;;;;18.35;100.00;97926.56;4789805;29;20043;-83
2022/09/08 08:30:21;;;;;;;16.75;8.07;;;;;;;18.35;100.00;97926.56;4885865;29;20060;-83
2022/09/08 08:32:59;;;;;;;13.15;8.98;;;;;;;18.50;100.00;97916.94;4888282;29;20463;-82
2022/09/08 08:35:27;;;;;;;12.45;8.70;;;;;;;19.00;100.00;97929.41;4874395;29;20028;-83
2022/09/08 08:37:54;;;;;;;11.70;7.35;;;;;;;19.23;100.00;97918.03;4891034;29;20100;-83
2022/09/08 08:40:47;;;;;;;12.38;6.57;;;;;;;19.58;100.00;97933.97;4906727;29;20556;-82
2022/09/08 08:43:19;;;;;;;12.18;5.70;;;;;;;19.59;100.00;97934.75;4887274;29;20025;-83
2022/09/08 08:46:10;;;;;;;11.02;5.25;;;;;;;19.47;100.00;97935.94;4856069;29;20045;-83
2022/09/08 08:49:05;;;;;;;11.27;5.63;;;;;;;19.43;100.00;97934.91;4889881;29;20029;-83
2022/09/08 08:52:01;;;;;;;12.10;6.18;;;;;;;19.61;100.00;97943.25;4888163;29;20044;-83
2022/09/08 08:54:49;;;;;;;11.38;5.53;;;;;;;19.68;100.00;97933.09;4889422;29;20029;-82
2022/09/08 08:57:42;;;;;;;10.48;5.45;;;;;;;19.57;100.00;97936.91;4888099;29;20041;-84
2022/09/08 09:00:08;;;;;;;11.73;5.17;;;;;;;19.64;100.00;97940.84;4872996;29;20111;-85
2022/09/08 09:02:58;;;;;;;8.85;5.03;;;;;;;19.65;100.00;97939.75;4879965;29;20117;-82
2022/09/08 09:05:38;;;;;;;8.45;4.68;;;;;;;19.69;100.00;97940.00;4884618;29;20036;-82
2022/09/08 09:08:28;;;;;;;12.60;3.67;;;;;;;19.94;100.00;97938.16;4886695;29;20044;-82
2022/09/08 09:11:17;;;;;;;8.90;3.72;;;;;;;20.07;100.00;97936.69;4868772;29;20557;-84
2022/09/08 09:13:49;;;;;;;7.35;3.10;;;;;;;20.01;100.00;97946.59;4880329;29;20060;-84
2022/09/08 09:16:25;;;;;;;7.00;3.40;;;;;;;20.08;100.00;97947.06;4894445;29;20040;-83
2022/09/08 09:19:18;;;;;;;9.60;3.55;;;;;;;20.11;100.00;97949.16;4878271;29;20551;-85
2022/09/08 09:22:02;;;;;;;8.43;3.83;;;;;;;20.01;100.00;97957.25;4891679;29;20051;-85
2022/09/08 09:24:38;;;;;;;5.50;3.25;;;;;;;20.07;100.00;97950.81;4912467;29;20036;-85
2022/09/08 09:27:21;;;;;;;9.85;3.85;;;;;;;19.96;100.00;97949.31;4914534;29;20043;-85
2022/09/08 09:30:04;;;;;;;10.02;4.20;;;;;;;19.91;100.00;97949.34;4915690;29;20336;-87
2022/09/08 09:32:51;;;;;;;9.35;4.10;;;;;;;19.72;100.00;97944.75;4907256;29;20036;-87
2022/09/08 09:35:36;;;;;;;8.40;4.35;;;;;;;19.94;100.00;97943.50;4907722;29;20039;-85
2022/09/08 09:38:07;;;;;;;8.15;4.40;;;;;;;20.11;100.00;97945.69;4892351;29;20084;-85
2022/09/08 09:40:55;;;;;;;8.77;3.88;;;;;;;20.30;100.00;97940.41;4910983;29;20119;-85
2022/09/08 09:43:34;;;;;;;9.10;4.25;;;;;;;20.25;100.00;97922.63;4886784;29;20036;-87
2022/09/08 09:46:24;;;;;;;5.93;4.10;;;;;;;20.55;100.00;97938.50;4922596;29;20042;-86
2022/09/08 09:49:38;;;;;;;7.32;4.68;;;;;;;20.64;100.00;97936.78;4904594;29;20116;-85
2022/09/08 09:52:10;;;;;;;;;;;;;;;20.62;100.00;97944.25;4890038;29;20127;-84
2022/09/08 09:54:51;;;;;;;7.28;4.13;;;;;;;20.74;100.00;97943.03;4907039;29;19915;-85
2022/09/08 09:57:47;;;;;;;7.63;4.15;;;;;;;20.65;100.00;97945.56;4890771;29;20364;-85
2022/09/08 10:00:25;;;;;;;6.75;3.88;;;;;;;20.20;100.00;97949.31;4886196;29;20497;-84
2022/09/08 10:03:24;;;;;;;7.85;4.60;;;;;;;20.23;100.00;97942.63;4913564;29;20039;-85
2022/09/08 10:06:02;;;;;;;9.00;4.13;;;;;;;20.22;100.00;97941.03;4887253;29;20428;-84
2022/09/08 10:09:00;;;;;;;6.60;3.83;;;;;;;20.16;100.00;97931.53;4910909;29;20126;-86
2022/09/08 10:11:46;;;;;;;7.80;3.88;;;;;;;20.16;100.00;97931.53;4905266;29;20122;-85
2022/09/08 10:14:26;;;;;;;8.60;4.50;;;;;;;20.02;100.00;97932.19;4907642;29;20498;-85
2022/09/08 10:17:33;;;;;;;6.55;3.75;;;;;;;20.32;100.00;97930.25;4904206;29;20046;-84
2022/09/08 10:20:04;;;;;;;7.60;4.40;;;;;;;20.46;100.00;97929.56;4901698;29;20040;-83
2022/09/08 10:22:48;;;;;;;5.53;4.18;;;;;;;20.58;100.00;97935.25;4889201;29;20178;-86
2022/09/08 10:25:23;;;;;;;;;;;;;;;20.78;100.00;97930.72;4885079;29;20029;-84
2022/09/08 10:28:12;;;;;;;7.78;3.42;;;;;;;20.94;100.00;97937.44;4888172;29;19966;-83
2022/09/08 10:31:00;;;;;;;5.75;3.53;;;;;;;21.37;100.00;97933.03;4885543;29;20033;-83
2022/09/08 10:33:53;;;;;;;6.47;3.30;;;;;;;21.55;100.00;97921.50;4885328;29;20419;-83
2022/09/08 10:36:36;;;;;;;5.70;3.13;;;;;;;21.97;100.00;97926.09;4879324;29;20043;-84
2022/09/08 10:39:25;;;;;;;5.07;3.47;;;;;;;22.05;100.00;97922.75;4882986;29;20033;-83
2022/09/08 10:42:20;;;;;;;6.90;3.50;;;;;;;22.15;100.00;97916.41;4864156;29;20300;-83
2022/09/08 10:45:07;;;;;;;9.73;3.90;;;;;;;22.25;100.00;97915.41;4871734;29;20041;-83
2022/09/08 10:47:57;;;;;;;8.23;3.70;;;;;;;22.43;100.00;97921.69;4886400;29;20036;-84
2022/09/08 10:50:31;;;;;;;5.70;3.65;;;;;;;22.71;100.00;97910.16;4883401;29;20056;-82
2022/09/08 10:53:21;;;;;;;6.65;3.63;;;;;;;23.08;100.00;97913.59;4888362;29;20041;-83
2022/09/08 10:56:02;;;;;;;5.43;4.00;;;;;;;23.02;100.00;97909.47;4885791;29;20036;-83
2022/09/08 10:58:36;;;;;;;6.00;3.65;;;;;;;22.71;100.00;97907.50;4868588;29;20037;-83
2022/09/08 11:01:08;;;;;;;10.65;4.15;;;;;;;22.60;100.00;97904.25;4867721;29;20132;-83
2022/09/08 11:04:17;;;;;;;10.95;3.60;;;;;;;22.98;100.00;97903.91;4888570;29;20554;-83
2022/09/08 11:07:10;;;;;;;12.73;4.07;;;;;;;22.99;100.00;97902.81;4868244;29;20371;-84
2022/09/08 11:10:06;;;;;;;10.68;4.20;;;;;;;23.20;100.00;97900.44;4868436;29;20103;-83
2022/09/08 11:12:50;;;;;;;8.32;4.22;;;;;;;23.21;100.00;97894.00;4906867;29;20036;-83
2022/09/08 11:15:44;;;;;;;6.07;3.88;;;;;;;23.34;100.00;97891.53;4885734;29;20061;-83
2022/09/08 11:18:38;;;;;;;8.80;4.18;;;;;;;22.59;100.00;97898.09;4901591;29;20033;-84
2022/09/08 11:21:17;;;;;;;8.02;4.20;;;;;;;22.32;100.00;97893.63;4855943;29;20068;-83
2022/09/08 11:24:11;;;;;;;5.78;4.57;;;;;;;22.16;100.00;97887.78;4873376;29;20089;-83
2022/09/08 11:27:01;;;;;;;6.07;4.75;;;;;;;21.88;100.00;97887.81;4870047;29;20041;-83
2022/09/08 11:29:35;;;;;;;12.13;5.63;;;;;;;21.59;100.00;97888.84;4871664;29;20089;-84
2022/09/08 11:32:32;;;;;;;9.82;5.47;;;;;;;21.30;100.00;97876.56;4901927;29;20037;-83
2022/09/08 11:35:20;;;;;;;9.48;5.45;;;;;;;21.40;100.00;97892.38;4882128;29;20038;-83
2022/09/08 11:38:16;;;;;;;8.80;5.38;;;;;;;21.27;100.00;97888.63;4892972;29;20123;-83
2022/09/08 11:40:57;;;;;;;10.57;6.32;;;;;;;21.29;100.00;97883.78;4889655;29;20029;-83
2022/09/08 11:43:47;;;;;;;9.02;5.88;;;;;;;21.50;100.00;97881.53;4886478;29;20040;-83
2022/09/08 11:46:40;;;;;;;8.77;6.40;;;;;;;21.53;100.00;97880.94;4886513;29;20040;-83
2022/09/08 11:49:36;;;;;;;11.13;6.30;;;;;;;21.57;100.00;97885.69;4885837;29;20131;-83
2022/09/08 11:52:15;;;;;;;10.25;5.30;;;;;;;21.73;100.00;97880.91;4871958;29;20064;-84
2022/09/08 11:55:19;;;;;;;11.05;4.97;;;;;;;22.30;100.00;97882.41;4892997;29;20033;-83
2022/09/08 11:58:07;;;;;;;14.40;5.25;;;;;;;22.72;100.00;97879.66;4852375;29;20068;-84